| time (UTC) | temp C | wind direction | speed KPH | gust KPH | rain 1hr cm | rain 24hr cm | rain mn cm | humidity % | barometer mb |
| 20260507095037 | 10 | 293 | 8.0 | 17.7 | 0.00 | 0.03 | 0.03 | 92 | 1013.9 |
| 20260507094017 | 10 | 270 | 9.7 | 17.7 | 0.00 | 0.03 | 0.03 | 92 | 1013.7 |
| 20260507093017 | 10 | 293 | 9.7 | 14.5 | 0.00 | 0.03 | 0.03 | 91 | 1013.6 |
| 20260507092017 | 10 | 270 | 11.3 | 17.7 | 0.00 | 0.03 | 0.03 | 91 | 1013.4 |
| 20260507091057 | 10 | 270 | 11.3 | 17.7 | 0.00 | 0.03 | 0.03 | 92 | 1013.3 |
| 20260507090017 | 10 | 293 | 9.7 | 19.3 | 0.00 | 0.03 | 0.03 | 92 | 1013.3 |
| 20260507085017 | 9 | 293 | 8.0 | 16.1 | 0.00 | 0.03 | 0.03 | 92 | 1013.2 |
| 20260507084017 | 9 | 270 | 9.7 | 17.7 | 0.00 | 0.03 | 0.03 | 92 | 1013.1 |
| 20260507083016 | 9 | 293 | 9.7 | 17.7 | 0.00 | 0.03 | 0.03 | 92 | 1013.1 |
| 20260507082016 | 9 | 293 | 11.3 | 17.7 | 0.00 | 0.03 | 0.03 | 91 | 1013.0 |
| 20260507081017 | 9 | 293 | 11.3 | 17.7 | 0.00 | 0.03 | 0.03 | 92 | 1012.9 |
| 20260507080017 | 9 | 293 | 9.7 | 16.1 | 0.03 | 0.03 | 0.03 | 92 | 1012.6 |
| 20260507075036 | 9 | 293 | 8.0 | 16.1 | 0.03 | 0.03 | 0.03 | 92 | 1012.6 |
| 20260507074016 | 9 | 293 | 6.4 | 14.5 | 0.03 | 0.03 | 0.03 | 92 | 1012.4 |
| 20260507073037 | 10 | 270 | 6.4 | 12.9 | 0.03 | 0.03 | 0.03 | 92 | 1012.4 |
| 20260507072016 | 9 | 293 | 8.0 | 16.1 | 0.03 | 0.03 | 0.03 | 92 | 1012.2 |
| 20260507071057 | 9 | 293 | 6.4 | 14.5 | 0.03 | 0.03 | 0.03 | 91 | 1012.2 |
| 20260507070016 | 9 | 270 | 6.4 | 11.3 | 0.00 | 0.00 | 0.00 | 92 | 1012.2 |
| 20260507065036 | 9 | 293 | 4.8 | 11.3 | 0.00 | 0.00 | 0.00 | 91 | 1012.2 |
| 20260507064016 | 9 | 293 | 6.4 | 12.9 | 0.00 | 0.00 | 0.00 | 89 | 1011.9 |
| 20260507063016 | 9 | 293 | 4.8 | 9.7 | 0.00 | 0.00 | 0.00 | 89 | 1011.8 |
| 20260507062017 | 9 | 293 | 6.4 | 11.3 | 0.00 | 0.00 | 0.00 | 89 | 1011.7 |
| 20260507061017 | 9 | 293 | 4.8 | 11.3 | 0.00 | 0.00 | 0.00 | 89 | 1011.6 |
| 20260507060017 | 9 | 270 | 8.0 | 14.5 | 0.00 | 0.00 | 0.00 | 89 | 1011.5 |
| 20260507055016 | 9 | 293 | 8.0 | 14.5 | 0.00 | 0.00 | 0.00 | 89 | 1011.4 |
| 20260507054017 | 9 | 293 | 6.4 | 14.5 | 0.00 | 0.00 | 0.00 | 89 | 1011.3 |
| 20260507053016 | 9 | 293 | 9.7 | 16.1 | 0.00 | 0.00 | 0.00 | 90 | 1011.1 |
| 20260507052016 | 9 | 293 | 8.0 | 14.5 | 0.00 | 0.00 | 0.00 | 90 | 1011.1 |
| 20260507051016 | 9 | 293 | 8.0 | 12.9 | 0.00 | 0.00 | 0.00 | 90 | 1011.0 |
| 20260507050016 | 9 | 293 | 4.8 | 11.3 | 0.00 | 0.00 | 0.00 | 90 | 1010.8 |
| 20260507045016 | 9 | 293 | 4.8 | 11.3 | 0.00 | 0.00 | 0.00 | 90 | 1010.9 |
| 20260507044016 | 9 | 270 | 4.8 | 11.3 | 0.00 | 0.00 | 0.00 | 91 | 1010.6 |
| 20260507043016 | 9 | 293 | 4.8 | 8.0 | 0.00 | 0.03 | 0.00 | 91 | 1010.6 |
| 20260507042016 | 8 | 293 | 4.8 | 11.3 | 0.00 | 0.05 | 0.00 | 91 | 1010.6 |
| 20260507041016 | 8 | 293 | 4.8 | 9.7 | 0.00 | 0.05 | 0.00 | 91 | 1010.6 |
| 20260507040016 | 8 | 293 | 4.8 | 9.7 | 0.00 | 0.05 | 0.00 | 91 | 1010.6 |
| 20260507035016 | 8 | 293 | 4.8 | 11.3 | 0.00 | 0.05 | 0.00 | 91 | 1010.5 |
| 20260507034036 | 9 | 293 | 6.4 | 11.3 | 0.00 | 0.13 | 0.00 | 90 | 1010.5 |
| 20260507033016 | 9 | 293 | 3.2 | 6.4 | 0.00 | 0.13 | 0.00 | 90 | 1010.5 |
| 20260507032056 | 9 | 315 | 4.8 | 11.3 | 0.00 | 0.15 | 0.00 | 90 | 1010.5 |
| 20260507031016 | 9 | 293 | 6.4 | 12.9 | 0.00 | 0.15 | 0.00 | 90 | 1010.5 |
| 20260507030016 | 9 | 293 | 4.8 | 8.0 | 0.00 | 0.18 | 0.00 | 90 | 1010.5 |
| 20260507025016 | 9 | 293 | 6.4 | 14.5 | 0.00 | 0.18 | 0.00 | 90 | 1010.4 |
| 20260507024016 | 9 | 293 | 8.0 | 16.1 | 0.00 | 0.20 | 0.00 | 90 | 1010.3 |
| 20260507023016 | 9 | 315 | 6.4 | 12.9 | 0.00 | 0.23 | 0.00 | 89 | 1010.4 |
| 20260507022056 | 9 | 315 | 4.8 | 12.9 | 0.00 | 0.23 | 0.00 | 89 | 1010.4 |
| 20260507021016 | 9 | 293 | 8.0 | 12.9 | 0.00 | 0.23 | 0.00 | 89 | 1010.2 |
| 20260507020016 | 9 | 315 | 8.0 | 12.9 | 0.00 | 0.25 | 0.00 | 90 | 1010.3 |
| 20260507015016 | 9 | 270 | 8.0 | 16.1 | 0.00 | 0.28 | 0.00 | 90 | 1010.2 |
| 20260507014016 | 9 | 293 | 6.4 | 12.9 | 0.00 | 0.28 | 0.00 | 90 | 1010.2 |
| 20260507013016 | 9 | 293 | 4.8 | 9.7 | 0.00 | 0.30 | 0.00 | 90 | 1010.0 |
| 20260507012016 | 9 | 270 | 6.4 | 16.1 | 0.00 | 0.30 | 0.00 | 90 | 1009.8 |
| 20260507011036 | 9 | 315 | 8.0 | 14.5 | 0.00 | 0.30 | 0.00 | 90 | 1009.8 |
| 20260507010016 | 9 | 293 | 9.7 | 19.3 | 0.00 | 0.30 | 0.00 | 90 | 1009.8 |
| 20260507005016 | 9 | 293 | 8.0 | 14.5 | 0.00 | 0.30 | 0.00 | 90 | 1009.8 |
| 20260507004015 | 9 | 293 | 9.7 | 17.7 | 0.00 | 0.30 | 0.00 | 90 | 1009.7 |
| 20260507003016 | 9 | 293 | 9.7 | 17.7 | 0.00 | 0.30 | 0.00 | 90 | 1009.7 |
| 20260507002015 | 9 | 293 | 8.0 | 16.1 | 0.00 | 0.30 | 0.00 | 90 | 1009.7 |
| 20260507001015 | 10 | 315 | 6.4 | 16.1 | 0.00 | 0.30 | 0.00 | 90 | 1009.6 |
| 20260507000036 | 10 | 293 | 6.4 | 12.9 | 0.00 | 0.30 | 0.00 | 90 | 1009.6 |
| 20260506235035 | 10 | 293 | 6.4 | 12.9 | 0.00 | 0.33 | 0.00 | 90 | 1009.7 |
| 20260506234016 | 10 | 315 | 8.0 | 16.1 | 0.00 | 0.33 | 0.00 | 90 | 1009.5 |
| 20260506233015 | 10 | 315 | 8.0 | 17.7 | 0.00 | 0.33 | 0.00 | 90 | 1009.5 |
| 20260506232016 | 10 | 293 | 8.0 | 14.5 | 0.00 | 0.33 | 0.00 | 90 | 1009.4 |
| 20260506231015 | 10 | 293 | 4.8 | 14.5 | 0.00 | 0.33 | 0.00 | 91 | 1009.3 |
| 20260506230036 | 10 | 293 | 8.0 | 14.5 | 0.00 | 0.33 | 0.00 | 91 | 1009.1 |
| 20260506225015 | 10 | 293 | 6.4 | 11.3 | 0.00 | 0.33 | 0.00 | 91 | 1009.1 |
| 20260506224055 | 10 | 293 | 8.0 | 16.1 | 0.00 | 0.36 | 0.00 | 91 | 1009.1 |
| 20260506223037 | 10 | 293 | 8.0 | 16.1 | 0.00 | 0.36 | 0.00 | 90 | 1008.9 |
| 20260506222017 | 10 | 293 | 8.0 | 14.5 | 0.00 | 0.41 | 0.00 | 89 | 1009.0 |
| 20260506221018 | 10 | 315 | 6.4 | 14.5 | 0.00 | 0.43 | 0.00 | 89 | 1009.1 |
| 20260506220017 | 10 | 293 | 6.4 | 14.5 | 0.00 | 0.46 | 0.46 | 89 | 1008.9 |
| 20260506215016 | 10 | 293 | 6.4 | 16.1 | 0.00 | 0.51 | 0.46 | 88 | 1008.8 |
| 20260506214016 | 10 | 293 | 6.4 | 12.9 | 0.00 | 0.53 | 0.46 | 88 | 1008.8 |
| 20260506213016 | 10 | 293 | 8.0 | 16.1 | 0.00 | 0.56 | 0.46 | 88 | 1008.6 |
| 20260506212016 | 10 | 315 | 6.4 | 12.9 | 0.00 | 0.61 | 0.46 | 89 | 1008.6 |
| 20260506211036 | 10 | 293 | 9.7 | 16.1 | 0.00 | 0.64 | 0.46 | 89 | 1008.6 |
| 20260506210016 | 10 | 293 | 8.0 | 12.9 | 0.00 | 0.71 | 0.46 | 89 | 1008.6 |
| 20260506205016 | 10 | 270 | 6.4 | 11.3 | 0.00 | 0.76 | 0.46 | 89 | 1008.7 |
| 20260506204016 | 10 | 293 | 4.8 | 11.3 | 0.00 | 0.84 | 0.46 | 89 | 1008.7 |
| 20260506203136 | 10 | 293 | 3.2 | 6.4 | 0.00 | 0.91 | 0.46 | 89 | 1008.5 |
| 20260506202016 | 10 | 315 | 3.2 | 8.0 | 0.00 | 1.02 | 0.46 | 89 | 1008.6 |
| 20260506201036 | 10 | 293 | 6.4 | 12.9 | 0.00 | 1.12 | 0.46 | 89 | 1008.3 |
| 20260506200016 | 10 | 293 | 9.7 | 16.1 | 0.00 | 1.17 | 0.46 | 89 | 1008.2 |
| 20260506195036 | 11 | 293 | 8.0 | 16.1 | 0.00 | 1.19 | 0.46 | 89 | 1008.3 |
| 20260506194016 | 11 | 293 | 11.3 | 20.9 | 0.00 | 1.27 | 0.46 | 89 | 1008.1 |
| 20260506193016 | 11 | 293 | 11.3 | 20.9 | 0.00 | 1.37 | 0.46 | 89 | 1008.0 |
| 20260506192016 | 11 | 293 | 9.7 | 17.7 | 0.00 | 1.52 | 0.46 | 89 | 1007.9 |
| 20260506191016 | 11 | 293 | 12.9 | 22.5 | 0.00 | 1.83 | 0.46 | 89 | 1007.7 |
| 20260506190036 | 11 | 293 | 12.9 | 24.1 | 0.00 | 2.03 | 0.46 | 88 | 1007.5 |
| 20260506185016 | 11 | 293 | 9.7 | 16.1 | 0.00 | 2.24 | 0.46 | 88 | 1007.2 |
| 20260506184016 | 11 | 293 | 11.3 | 19.3 | 0.00 | 2.39 | 0.46 | 88 | 1007.2 |
| 20260506183036 | 11 | 293 | 11.3 | 16.1 | 0.00 | 2.49 | 0.46 | 87 | 1007.0 |
| 20260506182036 | 12 | 293 | 11.3 | 20.9 | 0.00 | 2.59 | 0.46 | 88 | 1006.9 |
| 20260506181016 | 12 | 293 | 9.7 | 19.3 | 0.00 | 2.64 | 0.46 | 88 | 1007.0 |
| 20260506180016 | 12 | 293 | 11.3 | 19.3 | 0.00 | 2.64 | 0.46 | 87 | 1006.8 |
| 20260506175017 | 12 | 293 | 11.3 | 17.7 | 0.00 | 2.64 | 0.46 | 86 | 1006.8 |
| 20260506174016 | 12 | 293 | 9.7 | 17.7 | 0.00 | 2.64 | 0.46 | 86 | 1006.7 |
| 20260506173016 | 12 | 293 | 11.3 | 22.5 | 0.00 | 2.64 | 0.46 | 85 | 1006.4 |
| 20260506172016 | 13 | 293 | 12.9 | 20.9 | 0.00 | 2.64 | 0.46 | 85 | 1006.1 |
| 20260506171036 | 13 | 293 | 12.9 | 19.3 | 0.00 | 2.64 | 0.46 | 84 | 1006.0 |
| 20260506170016 | 13 | 315 | 12.9 | 22.5 | 0.00 | 2.64 | 0.46 | 83 | 1006.1 |
| 20260506165016 | 14 | 293 | 12.9 | 24.1 | 0.00 | 2.64 | 0.46 | 82 | 1006.0 |
| 20260506164016 | 14 | 315 | 16.1 | 27.4 | 0.00 | 2.64 | 0.46 | 81 | 1006.0 |
| 20260506163015 | 15 | 293 | 16.1 | 30.6 | 0.00 | 2.64 | 0.46 | 79 | 1005.8 |
| 20260506162016 | 16 | 293 | 16.1 | 29.0 | 0.00 | 2.64 | 0.46 | 78 | 1005.7 |
| 20260506161015 | 16 | 293 | 14.5 | 24.1 | 0.00 | 2.64 | 0.46 | 76 | 1005.6 |
| 20260506160015 | 17 | 293 | 14.5 | 25.7 | 0.00 | 2.64 | 0.46 | 73 | 1005.6 |
| 20260506155035 | 18 | 270 | 6.4 | 16.1 | 0.00 | 2.64 | 0.46 | 68 | 1005.5 |
| 20260506154015 | 18 | 270 | 8.0 | 14.5 | 0.00 | 2.64 | 0.46 | 67 | 1005.4 |
| 20260506153015 | 18 | 270 | 4.8 | 9.7 | 0.00 | 2.64 | 0.46 | 65 | 1005.5 |
| 20260506152015 | 18 | 225 | 4.8 | 9.7 | 0.00 | 2.64 | 0.46 | 65 | 1005.5 |
| 20260506151016 | 19 | 203 | 6.4 | 12.9 | 0.00 | 2.64 | 0.46 | 63 | 1005.5 |
| 20260506150017 | 19 | 203 | 6.4 | 14.5 | 0.00 | 2.64 | 0.46 | 63 | 1005.5 |
| 20260506145057 | 19 | 203 | 8.0 | 14.5 | 0.00 | 2.64 | 0.46 | 63 | 1005.6 |
| 20260506144017 | 18 | 180 | 8.0 | 14.5 | 0.00 | 2.64 | 0.46 | 64 | 1005.5 |
| 20260506143037 | 18 | 203 | 6.4 | 9.7 | 0.00 | 2.64 | 0.46 | 64 | 1005.6 |
| 20260506142015 | 18 | 225 | 4.8 | 12.9 | 0.00 | 2.64 | 0.46 | 65 | 1005.6 |
| 20260506141015 | 18 | 248 | 6.4 | 12.9 | 0.00 | 2.64 | 0.46 | 65 | 1005.6 |
| 20260506140017 | 18 | 225 | 8.0 | 16.1 | 0.00 | 2.64 | 0.46 | 65 | 1005.7 |
| 20260506135017 | 18 | 270 | 6.4 | 11.3 | 0.00 | 2.64 | 0.46 | 64 | 1005.6 |
| 20260506134017 | 19 | 248 | 9.7 | 16.1 | 0.00 | 2.64 | 0.46 | 63 | 1005.7 |
| 20260506133017 | 19 | 270 | 6.4 | 17.7 | 0.00 | 2.64 | 0.46 | 67 | 1005.7 |
| 20260506132018 | 18 | 248 | 6.4 | 12.9 | 0.00 | 2.64 | 0.46 | 69 | 1005.7 |
| 20260506131017 | 18 | 203 | 6.4 | 14.5 | 0.00 | 2.64 | 0.46 | 67 | 1005.6 |
| 20260506130018 | 18 | 248 | 6.4 | 12.9 | 0.00 | 2.64 | 0.46 | 68 | 1005.6 |
| 20260506125018 | 18 | 270 | 8.0 | 14.5 | 0.00 | 2.64 | 0.46 | 67 | 1005.6 |
| 20260506124017 | 18 | 225 | 4.8 | 9.7 | 0.00 | 2.64 | 0.46 | 69 | 1005.7 |
| 20260506123017 | 18 | 225 | 6.4 | 14.5 | 0.00 | 2.64 | 0.46 | 67 | 1005.7 |
| 20260506122017 | 18 | 248 | 8.0 | 12.9 | 0.00 | 2.64 | 0.46 | 71 | 1005.7 |
| 20260506121017 | 18 | 248 | 3.2 | 9.7 | 0.00 | 2.64 | 0.46 | 70 | 1005.6 |
| 20260506120017 | 18 | 203 | 8.0 | 16.1 | 0.00 | 2.64 | 0.46 | 69 | 1005.7 |
| 20260506115017 | 17 | 270 | 3.2 | 9.7 | 0.00 | 2.64 | 0.46 | 76 | 1005.7 |
| 20260506114017 | 17 | 270 | 6.4 | 12.9 | 0.00 | 2.64 | 0.46 | 75 | 1005.7 |
| 20260506113037 | 17 | 225 | 6.4 | 12.9 | 0.00 | 2.64 | 0.46 | 74 | 1005.7 |
| 20260506112037 | 17 | 203 | 8.0 | 17.7 | 0.00 | 2.64 | 0.46 | 74 | 1005.7 |
| 20260506111017 | 17 | 203 | 6.4 | 14.5 | 0.00 | 2.64 | 0.46 | 76 | 1005.7 |
| 20260506110017 | 16 | 225 | 4.8 | 11.3 | 0.00 | 2.64 | 0.46 | 77 | 1005.9 |
| 20260506105017 | 16 | 180 | 6.4 | 12.9 | 0.00 | 2.64 | 0.46 | 77 | 1006.0 |
| 20260506104017 | 16 | 203 | 8.0 | 19.3 | 0.00 | 2.64 | 0.46 | 75 | 1006.0 |
| 20260506103017 | 16 | 180 | 6.4 | 12.9 | 0.00 | 2.64 | 0.46 | 77 | 1006.1 |
| 20260506102017 | 16 | 180 | 4.8 | 12.9 | 0.00 | 2.64 | 0.46 | 79 | 1006.0 |
| 20260506101017 | 16 | 225 | 6.4 | 14.5 | 0.00 | 2.64 | 0.46 | 80 | 1006.0 |
| 20260506100017 | 15 | 203 | 1.6 | 6.4 | 0.00 | 2.64 | 0.46 | 81 | 1006.0 |